Latest Weather Observations for Jervois

IDD60801

Issued at 3:01 pm CST Sunday 26 February 2017 (issued every 30 minutes, with the page automatically refreshed every 10 minutes)

About weather observations | Map of weather stations | Latest weather observations for NT | Other Formats
Station Details ID: 015602 Name: JERVOIS Lat: -22.95 Lon: 136.14 Height: 328.0 m
Data from the previous 72 hours. | See also: Recent months at Jervois
Date/Time
CST
Temp
°C
App
Temp
°C
Dew
Point
°C
Rel
Hum
%
Delta-T
°C
Wind Press
QNH
hPa
Press
MSL
hPa
Rain since
9am
mm
Dir  Spd
km/h
Gust
km/h
Spd
kts
Gust
kts
26/03:00pm 37.2 31.4 -0.4 9 19.0 SE 20 28 11 15 1010.9 1008.6 0.0
26/02:30pm 37.6 31.7 -0.6 9 19.3 SSE 20 30 11 16 1011.2 - 0.0
26/02:00pm 37.0 31.1 -1.0 9 19.0 SSE 20 33 11 18 1011.6 - 0.0
26/01:30pm 36.8 31.1 -0.7 9 18.8 SSE 19 32 10 17 1012.0 - 0.0
26/01:00pm 35.8 30.1 -0.7 10 18.2 SSE 19 32 10 17 1012.5 - 0.0
26/12:30pm 35.6 30.3 1.8 12 17.5 SSE 19 28 10 15 1012.9 - 0.0
26/12:00pm 34.9 29.5 1.2 12 17.2 SSE 19 26 10 14 1013.5 - 0.0
26/11:30am 34.1 28.7 1.3 12 16.7 SSE 19 32 10 17 1013.9 - 0.0
26/11:00am 33.5 28.3 2.2 14 16.1 SSE 19 32 10 17 1014.4 - 0.0
26/10:30am 32.5 26.7 2.2 14 15.5 SSE 22 32 12 17 1014.9 - 0.0
26/10:00am 31.2 24.9 1.5 15 14.9 SSE 24 35 13 19 1015.2 - 0.0
26/09:30am 29.8 23.9 1.7 16 14.0 SSE 22 33 12 18 1015.2 - 0.0
26/09:00am 28.4 23.3 3.1 19 12.8 SSE 19 28 10 15 1015.3 1012.9 0.0
26/08:30am 27.3 22.1 2.6 20 12.3 SSE 19 30 10 16 1015.3 - 0.0
26/08:00am 26.1 21.4 3.0 22 11.5 S 17 26 9 14 1015.3 - 0.0
26/07:30am 24.7 20.7 2.7 24 10.8 S 13 26 7 14 1015.2 - 0.0
26/07:00am 22.8 18.8 3.1 27 9.6 SSW 13 17 7 9 1015.1 - 0.0
26/06:30am 22.3 19.1 2.9 28 9.4 SSW 9 13 5 7 1014.9 - 0.0
26/06:00am 22.2 19.0 3.0 28 9.3 SSW 9 13 5 7 1014.5 1012.2 0.0
26/05:30am 22.2 19.3 2.7 27 9.4 SSW 7 13 4 7 1014.3 - 0.0
26/05:00am 21.8 18.8 2.3 27 9.3 SSW 7 13 4 7 1013.9 - 0.0
26/04:30am 22.1 18.6 1.5 25 9.7 SSW 9 13 5 7 1013.6 - 0.0
26/04:00am 22.5 19.4 1.2 24 10.0 SW 7 11 4 6 1013.3 - 0.0
26/03:30am 23.5 20.5 1.8 24 10.4 SSW 7 9 4 5 1013.1 - 0.0
26/03:00am 25.0 21.4 0.4 20 11.6 S 9 15 5 8 1012.9 1010.5 0.0
26/02:30am 24.9 20.9 0.2 19 11.6 S 11 17 6 9 1012.7 - 0.0
26/02:00am 25.9 21.8 0.0 18 12.2 S 11 17 6 9 1012.9 - 0.0
26/01:30am 26.4 22.3 -0.5 17 12.6 S 11 15 6 8 1013.2 - 0.0
26/01:00am 26.7 22.8 1.0 18 12.4 S 11 15 6 8 1013.3 - 0.0
26/12:30am 27.5 23.1 0.4 17 13.0 SSE 13 17 7 9 1013.4 - 0.0
26/12:00am 28.7 23.8 -0.4 15 13.9 SSE 15 20 8 11 1013.5 1011.1 0.0
 
Date/Time
CST
Temp
°C
App
Temp
°C
Dew
Point
°C
Rel
Hum
%
Delta-T
°C
Wind Press
QNH
hPa
Press
MSL
hPa
Rain since
9am
mm
Dir  Spd
km/h
Gust
km/h
Spd
kts
Gust
kts
25/11:30pm 29.3 24.4 -0.2 15 14.2 S 15 20 8 11 1013.4 - 0.0
25/11:00pm 29.7 25.0 0.7 15 14.2 SSE 15 20 8 11 1013.5 - 0.0
25/10:30pm 30.3 25.3 1.4 15 14.4 SSE 17 22 9 12 1013.5 - 0.0
25/10:00pm 30.8 26.3 2.1 16 14.5 SSE 15 24 8 13 1013.4 - 0.0
25/09:30pm 31.3 26.7 1.7 15 14.9 SSE 15 20 8 11 1013.2 - 0.0
25/09:00pm 32.2 27.2 1.5 14 15.5 SSE 17 28 9 15 1012.9 1010.4 0.0
25/08:30pm 32.9 27.6 1.6 13 15.9 SSE 19 28 10 15 1012.4 - 0.0
25/08:00pm 33.0 28.3 3.0 15 15.6 SSE 17 24 9 13 1012.2 - 0.0
25/07:30pm 34.0 28.8 2.3 13 16.4 SSE 19 26 10 14 1011.9 - 0.0
25/07:00pm 35.1 29.6 1.8 12 17.2 SSE 20 37 11 20 1011.6 - 0.0
25/06:30pm 35.9 30.8 4.1 14 17.1 SSE 20 35 11 19 1011.4 - 0.0
25/06:00pm 37.0 31.8 3.4 12 18.0 SSE 20 30 11 16 1011.2 1008.9 0.0
25/05:30pm 37.4 31.8 3.6 12 18.2 SSE 22 35 12 19 1011.1 - 0.0
25/05:00pm 38.1 32.2 4.1 12 18.5 SSE 24 41 13 22 1011.0 - 0.0
25/04:30pm 38.7 33.6 4.1 12 18.9 SE 20 33 11 18 1011.1 - 0.0
25/04:00pm 38.7 31.9 3.3 11 19.1 SSE 28 41 15 22 1011.2 - 0.0
25/03:30pm 38.6 31.5 3.4 11 19.0 SSE 30 44 16 24 1011.4 - 0.0
25/03:00pm 38.6 32.0 4.2 12 18.8 SSE 28 46 15 25 1011.9 1009.5 0.0
25/02:52pm 38.7 32.0 3.7 11 19.0 SSE 28 46 15 25 1011.9 - 0.0
25/02:30pm 38.6 33.1 3.8 11 18.9 SE 22 41 12 22 1012.4 - 0.0
25/02:00pm 37.8 31.6 4.1 12 18.3 SE 26 41 14 22 1012.8 - 0.0
25/01:48pm 37.8 31.2 4.1 12 18.3 ESE 28 48 15 26 1013.0 - 0.0
25/01:30pm 37.9 32.5 4.3 12 18.3 SE 22 39 12 21 1013.3 - 0.0
25/01:00pm 37.0 30.8 4.1 13 17.8 SE 26 41 14 22 1013.8 - 0.0
25/12:30pm 36.6 29.9 3.9 13 17.6 SE 28 44 15 24 1014.2 - 0.0
25/12:08pm 36.1 29.4 3.4 13 17.4 ESE 28 46 15 25 1014.6 - 0.0
25/12:00pm 35.5 28.8 3.9 14 16.9 SE 28 37 15 20 1014.8 1012.5 0.0
25/11:30am 35.4 29.1 3.6 13 16.9 SE 26 37 14 20 1015.4 - 0.0
25/11:02am 34.3 27.5 3.3 14 16.3 SE 28 50 15 27 1015.8 - 0.0
25/11:00am 34.8 28.2 4.1 14 16.4 SE 28 39 15 21 1015.8 - 0.0
25/10:30am 33.4 26.8 4.2 16 15.5 SE 28 44 15 24 1016.0 - 0.0
25/10:00am 32.2 25.6 4.1 17 14.8 SSE 28 44 15 24 1016.3 - 0.0
25/09:35am 31.3 24.6 3.5 17 14.4 SSE 28 48 15 26 1016.4 - 0.0
25/09:30am 31.7 26.0 5.1 18 14.2 SSE 24 35 13 19 1016.4 - 0.0
25/09:00am 30.2 23.2 4.0 19 13.6 SSE 30 39 16 21 1016.6 1014.3 0.0
25/08:30am 27.9 23.9 6.6 26 11.4 SSE 17 26 9 14 1016.6 - 0.0
25/08:00am 26.5 22.0 5.9 26 10.8 S 19 28 10 15 1016.6 - 0.0
25/07:30am 24.9 21.7 7.0 31 9.5 S 13 20 7 11 1016.5 - 0.0
25/07:00am 23.4 20.3 7.1 35 8.6 S 13 20 7 11 1016.2 - 0.0
25/06:30am 22.1 19.1 7.5 39 7.7 S 13 17 7 9 1015.9 - 0.0
25/06:00am 21.9 19.2 7.2 38 7.7 SSW 11 19 6 10 1015.7 1013.3 0.0
25/05:30am 22.2 19.5 7.4 38 7.8 SSW 11 17 6 9 1015.6 - 0.0
25/05:00am 22.3 20.0 7.5 38 7.8 SW 9 13 5 7 1015.7 - 0.0
25/04:30am 23.1 20.7 7.1 35 8.4 SW 9 13 5 7 1015.6 - 0.0
25/04:00am 23.8 21.5 7.4 35 8.7 SW 9 13 5 7 1015.5 - 0.0
25/03:30am 24.5 22.1 7.2 33 9.2 SW 9 11 5 6 1015.5 - 0.0
25/03:00am 25.7 23.8 7.5 31 9.8 SW 7 11 4 6 1015.5 1013.1 0.0
25/02:30am 26.9 24.5 7.2 28 10.6 SSW 9 13 5 7 1015.6 - 0.0
25/02:00am 26.9 25.5 9.6 33 9.7 SSW 7 11 4 6 1015.9 - 0.0
25/01:30am 27.0 27.0 12.4 40 8.6 SSW 4 9 2 5 1015.9 - 0.0
25/01:00am 26.4 26.5 14.5 48 7.2 SSW 7 9 4 5 1016.3 - 0.0
25/12:30am 26.5 26.9 15.3 50 6.9 SW 7 13 4 7 1016.4 - 0.0
25/12:00am 26.7 26.9 15.7 51 6.8 WSW 9 13 5 7 1016.2 1013.9 0.0
 
Date/Time
CST
Temp
°C
App
Temp
°C
Dew
Point
°C
Rel
Hum
%
Delta-T
°C
Wind Press
QNH
hPa
Press
MSL
hPa
Rain since
9am
mm
Dir  Spd
km/h
Gust
km/h
Spd
kts
Gust
kts
24/11:30pm 27.1 27.5 15.4 48 7.2 WSW 7 9 4 5 1016.3 - 0.0
24/11:00pm 27.8 28.1 15.1 46 7.8 WSW 7 9 4 5 1016.4 - 0.0
24/10:30pm 28.4 28.3 14.9 43 8.3 WSW 9 11 5 6 1016.4 - 0.0
24/10:00pm 27.9 29.0 16.6 50 7.1 SW 6 7 3 4 1016.5 - 0.0
24/09:30pm 28.7 30.9 16.5 47 7.7 CALM 0 0 0 0 1016.4 - 0.0
24/09:00pm 29.7 30.0 14.4 39 9.4 S 6 7 3 4 1016.3 1013.9 0.0
24/08:30pm 30.1 30.3 13.2 35 10.2 S 4 9 2 5 1016.2 - 0.0
24/08:00pm 31.2 30.1 12.0 30 11.4 ESE 9 13 5 7 1015.9 - 0.0
24/07:30pm 31.7 30.1 11.6 29 11.9 SE 11 20 6 11 1015.7 - 0.0
24/07:00pm 31.2 30.1 13.0 33 11.0 S 11 17 6 9 1015.8 - 0.0
24/06:30pm 31.8 30.2 12.7 31 11.5 SE 13 19 7 10 1015.7 - 0.0
24/06:00pm 32.2 28.5 12.6 30 11.8 ESE 24 43 13 23 1015.5 1013.0 0.0
24/05:30pm 31.7 32.1 15.4 37 10.2 SW 7 9 4 5 1015.3 - 0.0
24/05:00pm 31.5 32.0 15.6 38 10.0 SW 7 9 4 5 1015.2 - 0.0
24/04:30pm 31.7 31.7 15.2 36 10.3 SSW 9 13 5 7 1015.3 - 0.0
24/04:00pm 31.8 32.2 16.4 39 9.8 SW 9 15 5 8 1015.5 - 0.0
24/03:30pm 29.8 31.7 19.0 52 7.1 SSW 7 13 4 7 1015.7 - 0.0
24/03:00pm 31.0 30.8 15.7 39 9.6 SSE 11 20 6 11 1016.3 1013.9 0.0
24/02:30pm 31.2 31.3 16.4 41 9.4 SE 11 20 6 11 1016.7 - 0.0
24/02:00pm 29.9 29.4 16.8 45 8.3 ENE 15 26 8 14 1017.4 - 0.0
24/01:30pm 30.5 28.4 15.2 39 9.5 E 20 39 11 21 1017.5 - 0.0
24/01:00pm 30.1 28.0 15.3 40 9.2 E 20 37 11 20 1017.8 - 0.0
24/12:30pm 30.3 31.2 16.6 43 8.7 ESE 7 13 4 7 1018.3 - 0.0
24/12:00pm 29.0 30.8 18.7 53 6.7 SSW 7 11 4 6 1018.7 1016.3 0.0
24/11:30am 27.9 29.6 18.5 56 6.1 NE 7 15 4 8 1019.1 - 0.0
24/11:00am 29.1 30.4 17.5 49 7.4 E 7 11 4 6 1019.6 - 0.0
24/10:30am 29.4 29.8 17.2 47 7.8 SE 11 22 6 12 1019.7 - 0.0
24/10:00am 29.6 29.6 18.2 50 7.4 SE 15 22 8 12 1019.7 - 0.0
24/09:30am 29.1 29.4 18.8 53 6.7 SE 15 24 8 13 1019.6 - 0.0
24/09:00am 28.4 28.9 19.2 57 6.0 SE 15 20 8 11 1019.6 1017.3 0.2
24/08:30am 27.4 27.9 19.3 61 5.3 SSE 15 22 8 12 1019.4 - 0.2
24/08:00am 26.4 27.9 19.8 67 4.3 SE 11 17 6 9 1019.5 - 0.2
24/07:30am 25.3 27.3 20.0 72 3.5 SSE 9 13 5 7 1019.3 - 0.2
24/07:00am 24.5 26.7 20.4 78 2.7 SSE 9 15 5 8 1018.9 - 0.2
24/06:30am 23.7 26.2 20.2 81 2.3 S 7 9 4 5 1018.7 - 0.2
24/06:00am 23.7 26.2 19.9 79 2.5 SSE 6 7 3 4 1018.2 1015.8 0.2
24/05:30am 24.2 26.6 19.6 75 3.0 SW 6 11 3 6 1017.3 - 0.2
24/05:00am 24.3 28.0 19.9 76 2.9 CALM 0 6 0 3 1017.5 - 0.2
24/04:30am 24.6 26.5 19.7 74 3.2 SE 9 13 5 7 1017.5 - 0.2
24/04:00am 24.9 26.6 19.4 71 3.6 SSE 9 13 5 7 1017.3 - 0.2
24/03:30am 24.7 27.6 19.8 74 3.2 SSE 4 9 2 5 1016.9 - 0.2
24/03:00am 24.5 26.9 19.6 74 3.2 SE 6 7 3 4 1016.6 1014.3 0.2
24/02:30am 24.4 27.2 19.6 74 3.1 SE 4 7 2 4 1016.7 - 0.2
24/02:00am 24.3 26.5 19.5 74 3.1 SE 7 9 4 5 1017.0 - 0.2
24/01:30am 24.7 26.5 19.5 73 3.4 SE 9 11 5 6 1017.2 - 0.2
24/01:00am 25.4 26.3 19.2 68 4.0 ESE 13 17 7 9 1017.8 - 0.2
24/12:30am 25.9 27.0 19.6 68 4.1 E 13 17 7 9 1018.0 - 0.2
24/12:00am 26.0 26.6 19.4 67 4.3 E 15 24 8 13 1017.8 1015.5 0.2
 
Date/Time
CST
Temp
°C
App
Temp
°C
Dew
Point
°C
Rel
Hum
%
Delta-T
°C
Wind Press
QNH
hPa
Press
MSL
hPa
Rain since
9am
mm
Dir  Spd
km/h
Gust
km/h
Spd
kts
Gust
kts
23/11:30pm 25.7 28.3 21.2 76 3.0 ESE 9 13 5 7 1017.8 - 0.2
23/11:00pm 25.6 27.9 21.4 77 2.8 ESE 11 17 6 9 1018.1 - 0.2
23/10:30pm 25.7 27.8 21.7 78 2.7 SSE 13 17 7 9 1018.4 - 0.2
23/10:00pm 25.4 29.0 23.1 87 1.6 SE 9 13 5 7 1018.5 - 0.0
23/09:30pm 25.3 30.4 23.4 89 1.3 NNW 2 7 1 4 1017.3 - 0.0
23/09:00pm 25.3 27.6 22.8 86 1.7 NE 15 22 8 12 1016.8 1014.5 0.0
23/08:30pm 26.4 28.4 21.5 74 3.3 ENE 13 17 7 9 1017.2 - 0.0
23/08:00pm 26.6 27.3 21.2 72 3.6 NNE 19 26 10 14 1016.4 - 0.0
23/07:30pm 26.9 25.7 20.9 69 4.0 NNE 28 39 15 21 1016.0 - 0.0
23/07:00pm 28.4 25.4 19.8 59 5.7 NE 35 54 19 29 1015.3 - 0.0
23/06:54pm 30.0 26.4 17.6 47 8.0 NE 33 54 18 29 1015.0 - 0.0
23/06:30pm 31.5 29.5 16.4 40 9.6 ENE 22 33 12 18 1014.5 - 0.0
23/06:00pm 31.7 29.4 17.6 43 9.1 ENE 26 37 14 20 1014.1 1011.8 0.0
23/05:30pm 32.0 30.8 17.1 41 9.6 E 19 28 10 15 1013.5 - 0.0
23/05:00pm 31.5 31.3 18.5 46 8.5 NE 17 24 9 13 1013.1 - 0.0
23/04:30pm 30.2 29.7 19.1 51 7.3 NE 20 30 11 16 1013.1 - 0.0
23/04:00pm 29.7 28.1 19.2 53 6.9 NE 26 39 14 21 1013.1 - 0.0
23/03:35pm 33.5 29.2 15.4 33 11.4 ENE 32 50 17 27 1013.1 - 0.0
23/03:30pm 34.1 30.6 15.5 32 11.8 ENE 28 39 15 21 1012.9 - 0.0

Other Formats:

Comma delimited format used in spreadsheet applications
http://www.bom.gov.au/fwo/IDD60801/IDD60801.94327.axf

JavaScript Object Notation format (JSON) in row-major order
http://www.bom.gov.au/fwo/IDD60801/IDD60801.94327.json